Time;durP1;ratioP1;P1;durP2;ratioP2;P2;SDS_P1;SDS_P2;PMS_P1;PMS_P2;Temp;Humidity;BMP_temperature;BMP_pressure;BME280_temperature;BME280_humidity;BME280_pressure;Samples;Min_cycle;Max_cycle;Signal;HPM_P1;HPM_P2
2022/11/09 00:00:47;;;;;;;11.53;8.70;;;;;;;4.61;100.00;96043.25;5029104;28;20844;-77
2022/11/09 00:03:14;;;;;;;8.50;7.70;;;;;;;4.51;100.00;96025.13;5017321;28;20450;-78
2022/11/09 00:05:41;;;;;;;9.60;8.63;;;;;;;4.48;100.00;96032.78;5032356;28;20812;-78
2022/11/09 00:08:09;;;;;;;9.17;8.27;;;;;;;4.39;100.00;96040.56;5032744;28;20453;-77
2022/11/09 00:10:37;;;;;;;10.67;9.50;;;;;;;4.34;100.00;96030.97;5031251;28;20444;-77
2022/11/09 00:13:04;;;;;;;10.50;9.40;;;;;;;4.37;100.00;96040.06;5034221;28;20984;-77
2022/11/09 00:15:30;;;;;;;15.47;10.00;;;;;;;4.35;100.00;96043.00;5031925;28;20482;-78
2022/11/09 00:18:00;;;;;;;10.67;9.50;;;;;;;4.63;100.00;96071.75;5033883;28;20430;-78
2022/11/09 00:20:27;;;;;;;15.33;9.17;;;;;;;4.58;100.00;96064.00;5030105;28;20476;-78
2022/11/09 00:22:53;;;;;;;11.40;9.90;;;;;;;4.24;100.00;96027.78;5021934;28;20461;-78
2022/11/09 00:25:20;;;;;;;13.33;9.23;;;;;;;4.23;100.00;96034.88;5033390;28;20454;-77
2022/11/09 00:27:47;;;;;;;13.10;9.40;;;;;;;4.43;100.00;96078.19;5013508;28;20820;-78
2022/11/09 00:30:14;;;;;;;11.63;9.00;;;;;;;4.21;100.00;96051.94;5032402;28;20433;-78
2022/11/09 00:32:40;;;;;;;15.60;9.07;;;;;;;4.44;100.00;96077.88;5005049;28;20497;-79
2022/11/09 00:35:07;;;;;;;12.67;9.47;;;;;;;4.13;100.00;96040.28;5016299;28;20532;-79
2022/11/09 00:37:34;;;;;;;10.23;8.47;;;;;;;4.27;100.00;96051.50;5023335;28;20862;-79
2022/11/09 00:40:01;;;;;;;14.00;9.73;;;;;;;3.96;100.00;96012.09;5032064;28;20500;-78
2022/11/09 00:42:28;;;;;;;13.17;9.90;;;;;;;3.83;100.00;95984.91;5007155;28;20490;-79
2022/11/09 00:44:54;;;;;;;15.73;10.90;;;;;;;4.18;100.00;96036.81;5036265;28;20509;-78
2022/11/09 00:47:21;;;;;;;16.97;12.80;;;;;;;4.07;100.00;96023.16;5043618;28;20528;-78
2022/11/09 00:49:48;;;;;;;15.17;10.90;;;;;;;4.11;100.00;96040.59;5021930;28;20538;-78
2022/11/09 00:52:15;;;;;;;12.20;9.67;;;;;;;4.02;100.00;96042.34;5019817;28;20467;-78
2022/11/09 00:54:41;;;;;;;14.67;9.30;;;;;;;4.15;100.00;96049.41;5033818;28;20433;-78
2022/11/09 00:57:11;;;;;;;12.50;9.20;;;;;;;4.17;100.00;96058.81;5037333;28;20438;-78
2022/11/09 00:59:41;;;;;;;13.97;9.00;;;;;;;3.87;100.00;96034.75;5032368;28;20942;-79
2022/11/09 01:02:08;;;;;;;17.97;11.80;;;;;;;3.72;100.00;96025.38;5029153;28;20470;-78
2022/11/09 01:04:34;;;;;;;15.20;11.13;;;;;;;4.01;100.00;96053.88;5012715;28;20471;-78
2022/11/09 01:07:01;;;;;;;14.67;10.10;;;;;;;3.96;100.00;96030.41;5030940;28;20438;-79
2022/11/09 01:09:28;;;;;;;16.70;9.90;;;;;;;3.73;100.00;95986.91;5032213;28;20426;-79
2022/11/09 01:11:55;;;;;;;17.07;11.23;;;;;;;3.99;100.00;96032.44;5015163;28;20446;-78
2022/11/09 01:14:22;;;;;;;12.37;9.57;;;;;;;4.12;100.00;96046.59;5032155;28;20606;-78
2022/11/09 01:16:49;;;;;;;14.27;10.07;;;;;;;3.91;100.00;96009.59;5006278;28;20940;-79
2022/11/09 01:19:16;;;;;;;15.60;10.53;;;;;;;4.09;100.00;96031.47;5031715;28;20434;-79
2022/11/09 01:21:44;;;;;;;15.80;9.23;;;;;;;3.95;100.00;96015.78;5031610;28;20950;-79
2022/11/09 01:24:10;;;;;;;14.77;9.50;;;;;;;3.71;100.00;95983.81;5037478;28;20480;-78
2022/11/09 01:26:37;;;;;;;13.70;10.37;;;;;;;3.95;100.00;96025.47;5015661;28;20446;-79
2022/11/09 01:29:04;;;;;;;16.63;12.03;;;;;;;4.11;100.00;96051.03;5032352;28;20511;-79
2022/11/09 01:31:32;;;;;;;15.47;10.83;;;;;;;4.19;100.00;96054.84;5023995;28;20513;-79
2022/11/09 01:34:00;;;;;;;16.03;10.73;;;;;;;4.05;100.00;96043.59;5018855;28;20553;-79
2022/11/09 01:36:27;;;;;;;15.50;10.37;;;;;;;4.06;100.00;96045.91;5025851;28;20530;-78
2022/11/09 01:38:54;;;;;;;19.43;10.40;;;;;;;3.95;100.00;96026.25;5015405;28;20438;-79
2022/11/09 01:41:23;;;;;;;15.27;9.13;;;;;;;4.01;100.00;96050.50;5038643;28;20981;-78
2022/11/09 01:44:07;;;;;;;13.90;10.53;;;;;;;3.90;100.00;96052.50;5031662;28;20473;-79
2022/11/09 01:46:44;;;;;;;18.33;10.50;;;;;;;3.38;100.00;96019.72;5011557;28;20446;-79
2022/11/09 01:49:22;;;;;;;13.00;10.40;;;;;;;3.59;100.00;96027.97;5015467;28;20450;-79
2022/11/09 01:52:07;;;;;;;15.93;9.50;;;;;;;3.69;100.00;96035.63;5035129;28;20778;-79
2022/11/09 01:54:42;;;;;;;14.30;10.23;;;;;;;3.23;100.00;95973.72;5017003;28;20434;-78
2022/11/09 01:57:13;;;;;;;14.83;9.63;;;;;;;3.36;100.00;95986.03;5015432;28;20886;-79
2022/11/09 01:59:45;;;;;;;11.90;9.30;;;;;;;3.66;100.00;96033.59;5032526;28;20767;-79
2022/11/09 02:02:12;;;;;;;14.03;9.73;;;;;;;3.37;100.00;95984.97;5007216;28;20470;-78
2022/11/09 02:04:49;;;;;;;16.13;11.20;;;;;;;3.53;100.00;96001.94;5033135;28;20539;-79
2022/11/09 02:07:16;;;;;;;18.20;10.97;;;;;;;3.55;100.00;95994.56;5033789;28;20536;-79
2022/11/09 02:10:02;;;;;;;21.97;12.10;;;;;;;3.71;100.00;96031.66;5018644;28;20473;-79
2022/11/09 02:12:33;;;;;;;13.93;10.67;;;;;;;3.53;100.00;96001.94;5028465;28;20500;-79
2022/11/09 02:15:03;;;;;;;19.03;10.80;;;;;;;3.68;100.00;96019.16;5017824;28;20533;-79
2022/11/09 02:17:31;;;;;;;21.83;10.50;;;;;;;3.69;100.00;96001.66;5030798;28;20453;-79
2022/11/09 02:19:58;;;;;;;24.40;11.87;;;;;;;3.80;100.00;96014.25;5034948;28;20974;-79
2022/11/09 02:22:26;;;;;;;22.83;14.57;;;;;;;3.47;100.00;95961.28;5026665;28;20565;-79
2022/11/09 02:24:52;;;;;;;25.63;14.43;;;;;;;3.76;100.00;95991.59;5034874;28;20490;-79
2022/11/09 02:27:23;;;;;;;27.83;13.63;;;;;;;3.17;100.00;95917.41;5027734;28;20447;-79
2022/11/09 02:29:51;;;;;;;15.27;11.20;;;;;;;3.49;100.00;95977.44;5034752;28;20447;-79
2022/11/09 02:32:28;;;;;;;16.50;10.90;;;;;;;3.09;100.00;95912.84;5033459;28;20501;-78
2022/11/09 02:34:56;;;;;;;23.87;12.23;;;;;;;3.65;100.00;95998.84;5034397;28;20438;-79
2022/11/09 02:37:36;;;;;;;28.43;11.23;;;;;;;3.19;100.00;95920.50;5040321;28;20465;-79
2022/11/09 02:40:08;;;;;;;16.03;9.90;;;;;;;3.67;100.00;95988.88;5021229;28;20429;-79
2022/11/09 02:42:35;;;;;;;18.20;9.27;;;;;;;3.79;100.00;96006.69;5026703;28;21013;-79
2022/11/09 02:45:02;;;;;;;13.73;9.20;;;;;;;3.80;100.00;96003.00;5030172;28;20475;-78
2022/11/09 02:47:28;;;;;;;12.10;8.17;;;;;;;3.83;100.00;95992.75;5013539;28;20538;-78
2022/11/09 02:49:56;;;;;;;12.13;7.17;;;;;;;3.74;100.00;95978.00;5031963;28;20537;-79
2022/11/09 02:52:25;;;;;;;10.37;7.87;;;;;;;3.80;100.00;95982.88;5033234;28;20472;-79
2022/11/09 02:54:52;;;;;;;9.17;7.80;;;;;;;3.56;100.00;95946.47;5039209;28;20476;-79
2022/11/09 02:57:19;;;;;;;8.97;6.40;;;;;;;3.83;100.00;95971.81;5031893;28;20447;-79
2022/11/09 02:59:46;;;;;;;10.50;6.83;;;;;;;3.63;100.00;95942.69;5023463;28;20439;-79
2022/11/09 03:02:13;;;;;;;10.37;6.70;;;;;;;4.02;100.00;96003.13;5016087;28;20467;-78
2022/11/09 03:04:39;;;;;;;15.40;6.70;;;;;;;3.64;100.00;95986.84;5016073;28;20561;-78
2022/11/09 03:07:07;;;;;;;8.93;7.07;;;;;;;3.99;100.00;96005.50;5025445;28;20532;-79
2022/11/09 03:09:34;;;;;;;8.40;6.57;;;;;;;4.03;100.00;95967.28;5033059;28;20525;-78
2022/11/09 03:12:27;;;;;;;7.67;5.70;;;;;;;4.33;100.00;96005.09;5016485;28;20579;-78
2022/11/09 03:14:48;;;;;;;8.10;5.53;;;;;;;4.17;100.00;95964.63;5033756;28;20477;-78
2022/11/09 03:17:16;;;;;;;8.10;6.70;;;;;;;4.40;100.00;96005.47;5028286;28;21026;-79
2022/11/09 03:19:44;;;;;;;6.90;5.77;;;;;;;4.36;100.00;96020.22;5017217;28;20462;-79
2022/11/09 03:22:11;;;;;;;6.63;5.87;;;;;;;4.24;100.00;96019.94;5032532;28;20977;-79
2022/11/09 03:24:37;;;;;;;8.03;6.40;;;;;;;4.03;100.00;96004.66;5034927;28;20419;-79
2022/11/09 03:27:04;;;;;;;7.83;6.23;;;;;;;4.04;100.00;96014.06;5033803;28;20496;-78
2022/11/09 03:29:32;;;;;;;6.60;5.90;;;;;;;4.15;100.00;96046.03;5033799;28;20447;-79
2022/11/09 03:31:59;;;;;;;7.70;6.40;;;;;;;4.15;100.00;96046.03;5031922;28;20465;-78
2022/11/09 03:34:25;;;;;;;10.13;7.07;;;;;;;4.15;100.00;96036.34;5033317;28;20442;-78
2022/11/09 03:36:52;;;;;;;7.80;7.00;;;;;;;4.03;100.00;96030.81;5015855;28;20442;-79
2022/11/09 03:39:20;;;;;;;6.80;6.10;;;;;;;4.09;100.00;96032.25;5033337;28;20464;-78
2022/11/09 03:41:47;;;;;;;7.00;5.47;;;;;;;3.78;100.00;95985.00;5032140;28;20466;-78
2022/11/09 03:44:13;;;;;;;7.50;6.30;;;;;;;3.83;100.00;96005.03;5033344;28;20446;-78
2022/11/09 03:46:40;;;;;;;6.97;6.27;;;;;;;3.89;100.00;96021.44;5015215;28;20897;-78
2022/11/09 03:49:07;;;;;;;9.97;6.33;;;;;;;3.52;100.00;95963.78;5034347;28;20430;-78
2022/11/09 03:51:34;;;;;;;14.17;8.67;;;;;;;3.94;100.00;96003.78;5031712;28;20422;-78
2022/11/09 03:54:00;;;;;;;8.73;6.50;;;;;;;3.68;100.00;95929.53;5016393;28;20458;-79
2022/11/09 03:56:27;;;;;;;8.30;6.40;;;;;;;4.23;100.00;95994.84;5019619;28;20908;-78
2022/11/09 03:58:53;;;;;;;7.17;6.47;;;;;;;4.06;100.00;95971.91;5024943;28;20441;-78
2022/11/09 04:01:20;;;;;;;5.50;4.70;;;;;;;4.15;100.00;95986.63;5019984;28;20532;-79
2022/11/09 04:03:47;;;;;;;11.03;6.33;;;;;;;4.15;100.00;95998.94;5031061;28;20469;-78
2022/11/09 04:06:14;;;;;;;6.87;6.00;;;;;;;4.08;100.00;95988.09;5020219;28;20997;-79
2022/11/09 04:08:40;;;;;;;5.80;5.30;;;;;;;4.37;100.00;96017.31;5034154;28;20450;-78
2022/11/09 04:11:12;;;;;;;7.33;6.63;;;;;;;3.77;100.00;95920.72;5034211;28;20462;-78
2022/11/09 04:13:39;;;;;;;7.00;6.30;;;;;;;4.72;100.00;96049.81;5026756;28;20470;-78
2022/11/09 04:16:05;;;;;;;10.43;9.43;;;;;;;4.35;100.00;95995.13;5032306;28;20434;-78
2022/11/09 04:18:32;;;;;;;9.90;8.73;;;;;;;4.43;100.00;96023.22;5044215;28;20472;-78
2022/11/09 04:20:59;;;;;;;14.00;10.87;;;;;;;4.13;100.00;95980.91;5012519;28;20465;-78
2022/11/09 04:23:26;;;;;;;13.30;9.70;;;;;;;4.09;100.00;95973.94;5040597;28;20461;-79
2022/11/09 04:25:52;;;;;;;12.20;9.17;;;;;;;3.97;100.00;95977.03;4996251;28;20475;-78
2022/11/09 04:28:19;;;;;;;11.17;8.20;;;;;;;3.83;100.00;95961.38;5022398;28;20533;-79
2022/11/09 04:30:46;;;;;;;12.47;9.40;;;;;;;4.41;100.00;95997.34;5038997;28;20497;-79
2022/11/09 04:33:12;;;;;;;10.50;8.60;;;;;;;4.46;100.00;95999.06;5025001;28;20470;-78
2022/11/09 04:35:39;;;;;;;9.10;8.20;;;;;;;4.34;100.00;96004.03;5012557;28;20474;-78
2022/11/09 04:38:09;;;;;;;8.93;8.03;;;;;;;4.34;100.00;95996.97;5023725;28;20454;-78
2022/11/09 04:40:36;;;;;;;11.77;7.83;;;;;;;3.64;100.00;95939.03;5027839;28;20533;-78
2022/11/09 04:43:04;;;;;;;11.40;7.50;;;;;;;4.21;100.00;96029.16;5031202;28;20488;-78
2022/11/09 04:45:33;;;;;;;9.33;8.20;;;;;;;4.21;100.00;96023.91;5032031;28;20486;-78
2022/11/09 04:48:01;;;;;;;9.20;8.13;;;;;;;4.08;100.00;96001.94;5029993;28;20987;-78
2022/11/09 04:50:28;;;;;;;9.70;8.70;;;;;;;4.25;100.00;96024.09;5024898;28;20473;-78
2022/11/09 04:53:04;;;;;;;8.63;7.70;;;;;;;4.12;100.00;96020.44;5023124;28;20454;-79
2022/11/09 04:55:33;;;;;;;10.53;8.13;;;;;;;4.15;100.00;96022.47;5015693;28;20465;-78
2022/11/09 04:58:00;;;;;;;10.70;9.03;;;;;;;4.18;100.00;96039.44;5029586;28;20480;-79
2022/11/09 05:00:27;;;;;;;12.17;9.17;;;;;;;3.94;100.00;96011.63;5031689;28;20435;-78
2022/11/09 05:02:54;;;;;;;9.00;7.97;;;;;;;4.18;100.00;96023.72;5027946;28;20478;-78
2022/11/09 05:05:20;;;;;;;10.93;8.77;;;;;;;3.89;100.00;95985.59;5031749;28;20458;-79
2022/11/09 05:07:47;;;;;;;7.57;6.73;;;;;;;3.87;100.00;95998.16;5025281;28;20498;-79
2022/11/09 05:10:14;;;;;;;8.00;6.83;;;;;;;3.81;100.00;96010.56;5023662;28;20541;-79
2022/11/09 05:12:41;;;;;;;9.47;8.07;;;;;;;3.98;100.00;96027.50;5011572;28;20467;-78
2022/11/09 05:15:11;;;;;;;7.63;6.93;;;;;;;3.78;100.00;95997.31;5023799;28;20480;-78
2022/11/09 05:17:38;;;;;;;11.20;7.87;;;;;;;3.59;100.00;95986.16;5030860;28;20478;-79
2022/11/09 05:20:05;;;;;;;11.60;7.43;;;;;;;4.02;100.00;96033.72;5015219;28;20450;-78
2022/11/09 05:25:17;;;;;;;12.37;11.17;;;;;;;4.19;100.00;96040.97;5036930;28;20461;-78
2022/11/09 05:27:43;;;;;;;14.60;11.30;;;;;;;3.93;100.00;96017.16;5035316;28;20438;-78
2022/11/09 05:30:10;;;;;;;10.60;9.53;;;;;;;3.76;100.00;95976.69;5021352;28;20525;-79
2022/11/09 05:32:38;;;;;;;12.40;9.23;;;;;;;4.06;100.00;96004.06;5038147;28;21029;-79
2022/11/09 05:35:05;;;;;;;13.20;9.20;;;;;;;4.29;100.00;95999.69;5014466;28;20445;-78
2022/11/09 05:37:32;;;;;;;12.50;8.90;;;;;;;4.28;100.00;96000.00;5034996;28;20445;-78
2022/11/09 05:39:58;;;;;;;9.63;8.63;;;;;;;4.10;100.00;95978.88;5031042;28;20540;-79
2022/11/09 05:42:25;;;;;;;15.13;12.07;;;;;;;4.18;100.00;95994.97;5034195;28;20467;-79
2022/11/09 05:44:51;;;;;;;12.53;9.53;;;;;;;4.09;100.00;95984.41;5037513;28;20524;-79
2022/11/09 05:47:19;;;;;;;9.27;8.17;;;;;;;3.80;100.00;95937.66;5036902;28;20487;-78
2022/11/09 05:49:45;;;;;;;11.80;8.60;;;;;;;4.04;100.00;96003.59;5031848;28;20442;-79
2022/11/09 05:52:12;;;;;;;12.77;9.30;;;;;;;4.18;100.00;96047.28;5044348;28;21011;-78
2022/11/09 05:54:39;;;;;;;10.80;9.40;;;;;;;4.24;100.00;96035.63;5038414;28;20428;-79
2022/11/09 05:57:06;;;;;;;11.67;8.63;;;;;;;3.65;100.00;95943.94;5029708;28;20436;-78
2022/11/09 05:59:32;;;;;;;10.20;8.20;;;;;;;4.49;100.00;96047.44;5036013;28;20790;-78
2022/11/09 06:01:59;;;;;;;10.83;9.47;;;;;;;3.87;100.00;95961.53;5035302;28;20536;-78
2022/11/09 06:04:26;;;;;;;8.10;7.20;;;;;;;4.72;100.00;96033.31;5034017;28;20473;-78
2022/11/09 06:06:52;;;;;;;12.10;11.03;;;;;;;4.44;100.00;95996.75;5019009;28;20466;-78
2022/11/09 06:09:19;;;;;;;14.37;13.00;;;;;;;4.63;100.00;96046.34;5033922;28;20446;-78
2022/11/09 06:11:46;;;;;;;9.90;9.00;;;;;;;4.30;100.00;96045.72;5037060;28;20872;-78
2022/11/09 06:14:12;;;;;;;8.93;7.60;;;;;;;4.34;100.00;96072.84;5020012;28;20497;-78
2022/11/09 06:16:39;;;;;;;9.67;8.37;;;;;;;4.42;100.00;96059.09;5038854;28;20451;-78
2022/11/09 06:19:06;;;;;;;14.63;8.27;;;;;;;4.72;100.00;96055.06;5034243;28;20533;-78
2022/11/09 06:21:33;;;;;;;10.80;9.70;;;;;;;4.12;100.00;95995.03;5034712;28;20476;-78
2022/11/09 06:23:59;;;;;;;10.87;9.77;;;;;;;4.44;100.00;96024.78;5013898;28;20471;-78
2022/11/09 06:26:26;;;;;;;12.73;10.50;;;;;;;4.45;100.00;96048.03;5011286;28;20557;-78
2022/11/09 06:28:52;;;;;;;16.67;10.40;;;;;;;4.71;100.00;96073.69;5035528;28;20964;-78
2022/11/09 06:31:19;;;;;;;21.10;13.60;;;;;;;4.70;100.00;96086.00;5037668;28;20521;-78
2022/11/09 06:33:46;;;;;;;14.63;10.90;;;;;;;4.43;100.00;96062.47;5015298;28;21003;-79
2022/11/09 06:36:12;;;;;;;10.37;9.27;;;;;;;4.55;100.00;96099.41;5032616;28;20411;-78
2022/11/09 06:38:39;;;;;;;18.70;12.13;;;;;;;4.77;100.00;96103.91;5038906;28;20434;-77
2022/11/09 06:41:06;;;;;;;29.00;17.10;;;;;;;4.97;100.00;96116.59;5061722;28;20497;-76
2022/11/09 06:43:32;;;;;;;26.13;16.33;;;;;;;4.87;100.00;96119.41;5030594;28;20458;-75
2022/11/09 06:46:02;;;;;;;22.50;16.10;;;;;;;4.50;100.00;96075.94;5042184;28;20469;-75
2022/11/09 06:48:29;;;;;;;18.03;12.73;;;;;;;4.38;100.00;96057.34;5021236;28;20533;-75
2022/11/09 06:51:00;;;;;;;13.97;11.03;;;;;;;5.01;100.00;96138.50;5036623;28;20536;-75
2022/11/09 06:53:28;;;;;;;11.53;9.60;;;;;;;4.78;100.00;96102.06;5033256;28;20473;-75
2022/11/09 06:55:59;;;;;;;10.13;9.07;;;;;;;4.78;100.00;96115.94;5033035;28;20430;-75
2022/11/09 06:58:27;;;;;;;12.60;9.87;;;;;;;4.81;100.00;96130.28;5028462;28;20809;-75
2022/11/09 07:00:54;;;;;;;10.80;8.57;;;;;;;4.85;100.00;96139.13;5028155;28;20521;-76
2022/11/09 07:03:21;;;;;;;16.17;10.30;;;;;;;4.72;100.00;96125.75;5027307;28;20485;-80
2022/11/09 07:05:51;;;;;;;11.97;9.40;;;;;;;4.82;100.00;96137.09;5052794;28;20458;-78
2022/11/09 07:08:18;;;;;;;10.67;8.30;;;;;;;4.82;100.00;96140.50;5070073;28;20451;-78
2022/11/09 07:10:45;;;;;;;10.90;8.30;;;;;;;4.29;100.00;96061.72;5056485;28;20422;-80
2022/11/09 07:13:12;;;;;;;13.10;9.40;;;;;;;4.72;100.00;96125.75;5019366;28;20538;-81
2022/11/09 07:15:39;;;;;;;10.80;9.47;;;;;;;4.87;100.00;96144.84;5029077;28;20447;-80
2022/11/09 07:18:10;;;;;;;13.47;9.77;;;;;;;4.60;100.00;96073.09;5037147;28;20437;-80
2022/11/09 07:20:37;;;;;;;12.17;10.97;;;;;;;4.56;100.00;96058.28;5042001;28;20866;-80
2022/11/09 07:23:04;;;;;;;11.40;10.20;;;;;;;5.08;100.00;96122.41;5045809;28;20471;-80
2022/11/09 07:25:31;;;;;;;9.47;8.53;;;;;;;4.59;100.00;96048.00;5034695;28;20430;-80
2022/11/09 07:28:06;;;;;;;9.57;8.50;;;;;;;5.18;100.00;96129.22;5048294;28;20468;-80
2022/11/09 07:30:35;;;;;;;11.60;8.53;;;;;;;5.21;100.00;96121.56;5040069;28;20417;-80
2022/11/09 07:33:10;;;;;;;10.80;7.50;;;;;;;4.99;100.00;96092.72;5027456;28;20469;-80
2022/11/09 07:35:37;;;;;;;9.20;8.03;;;;;;;4.96;100.00;96081.00;5051172;28;20506;-80
2022/11/09 07:38:03;;;;;;;10.10;8.40;;;;;;;5.15;100.00;96091.28;5049806;28;20433;-79
2022/11/09 07:40:30;;;;;;;10.77;8.97;;;;;;;5.26;100.00;96097.88;5045551;28;20924;-80
2022/11/09 07:42:58;;;;;;;10.07;7.70;;;;;;;5.42;100.00;96108.75;5029659;28;20454;-80
2022/11/09 07:45:26;;;;;;;9.53;8.00;;;;;;;5.42;100.00;96103.53;5014761;28;20445;-80
2022/11/09 07:48:00;;;;;;;8.97;8.17;;;;;;;5.64;100.00;96126.34;5026584;28;20465;-80
2022/11/09 07:50:28;;;;;;;7.97;7.17;;;;;;;5.53;100.00;96115.31;5034170;28;20490;-80
2022/11/09 07:52:55;;;;;;;8.63;7.83;;;;;;;5.54;100.00;96109.00;5040625;28;20465;-80
2022/11/09 07:55:23;;;;;;;10.07;7.53;;;;;;;5.40;100.00;96084.69;5047214;28;20460;-80
2022/11/09 07:58:00;;;;;;;9.30;8.23;;;;;;;5.62;100.00;96107.53;5043773;28;20917;-80
2022/11/09 08:00:29;;;;;;;7.83;7.13;;;;;;;5.61;100.00;96103.34;5018172;28;20533;-80
2022/11/09 08:02:56;;;;;;;8.10;7.40;;;;;;;5.71;100.00;96121.44;5036193;28;20476;-80
2022/11/09 08:05:23;;;;;;;11.37;8.10;;;;;;;5.50;100.00;96087.09;5028753;28;20517;-80
2022/11/09 08:07:55;;;;;;;7.67;6.57;;;;;;;5.52;100.00;96082.31;5024570;28;20552;-80
2022/11/09 08:10:22;;;;;;;7.73;6.80;;;;;;;5.93;100.00;96133.78;5030689;28;20500;-80
2022/11/09 08:12:54;;;;;;;12.13;8.20;;;;;;;5.91;100.00;96123.59;5026432;28;20557;-80
2022/11/09 08:15:21;;;;;;;8.73;7.83;;;;;;;5.84;100.00;96119.81;5023375;28;20582;-80
2022/11/09 08:17:47;;;;;;;7.60;6.80;;;;;;;6.05;100.00;96147.16;5044024;28;20536;-80
2022/11/09 08:20:15;;;;;;;8.60;6.50;;;;;;;6.26;100.00;96173.63;5021106;28;20459;-80
2022/11/09 08:22:43;;;;;;;8.77;7.60;;;;;;;6.01;100.00;96137.53;5042725;28;20495;-80
2022/11/09 08:25:11;;;;;;;7.43;6.57;;;;;;;6.21;100.00;96166.66;5016341;28;20451;-80
2022/11/09 08:27:41;;;;;;;10.00;7.30;;;;;;;6.12;100.00;96149.31;5032883;28;20907;-80
2022/11/09 08:30:14;;;;;;;6.30;5.77;;;;;;;6.35;100.00;96171.06;5020131;28;20545;-80
2022/11/09 08:32:42;;;;;;;8.00;6.80;;;;;;;6.42;100.00;96160.91;5048170;28;20498;-80
2022/11/09 08:35:12;;;;;;;8.00;7.20;;;;;;;6.28;100.00;96140.00;5022734;28;20472;-80
2022/11/09 08:37:39;;;;;;;10.70;6.67;;;;;;;6.19;100.00;96097.94;5047260;28;20868;-80
2022/11/09 08:40:06;;;;;;;8.23;7.50;;;;;;;6.49;100.00;96143.63;5030983;28;20496;-79
2022/11/09 08:42:32;;;;;;;8.63;6.90;;;;;;;6.22;100.00;96105.22;5030010;28;20501;-79
2022/11/09 08:44:59;;;;;;;14.60;8.47;;;;;;;6.46;100.00;96136.34;5018807;28;20451;-79
2022/11/09 08:47:27;;;;;;;8.00;7.20;;;;;;;6.55;100.00;96122.47;5027767;28;20458;-79
2022/11/09 08:49:54;;;;;;;8.80;6.87;;;;;;;6.75;100.00;96159.47;5018670;28;20537;-79
2022/11/09 08:52:22;;;;;;;9.17;8.03;;;;;;;6.74;100.00;96159.75;5038086;28;20958;-79
2022/11/09 08:54:48;;;;;;;9.00;8.10;;;;;;;6.78;100.00;96140.44;5036745;28;20444;-79
2022/11/09 08:57:19;;;;;;;8.60;7.80;;;;;;;6.95;100.00;96159.97;5036619;28;20513;-79
2022/11/09 08:59:46;;;;;;;8.53;6.27;;;;;;;6.76;100.00;96118.97;5019535;28;20517;-79
2022/11/09 09:02:13;;;;;;;8.20;6.80;;;;;;;6.96;100.00;96164.94;5052989;28;20529;-79
2022/11/09 09:04:40;;;;;;;8.67;7.80;;;;;;;7.13;100.00;96171.28;5047777;28;20434;-78
2022/11/09 09:07:09;;;;;;;8.17;7.37;;;;;;;7.19;100.00;96170.03;5052654;28;20464;-78
2022/11/09 09:09:37;;;;;;;8.97;8.17;;;;;;;7.02;100.00;96166.31;5049530;28;20454;-78
2022/11/09 09:12:08;;;;;;;8.73;7.80;;;;;;;7.36;100.00;96199.78;5053796;28;20485;-78
2022/11/09 09:14:35;;;;;;;9.00;7.93;;;;;;;7.10;100.00;96176.09;5056683;28;20476;-78
2022/11/09 09:17:02;;;;;;;9.67;7.33;;;;;;;7.14;100.00;96185.97;5017016;28;20802;-78
2022/11/09 09:19:28;;;;;;;11.97;7.47;;;;;;;7.22;100.00;96206.25;5037841;28;20544;-79
2022/11/09 09:21:55;;;;;;;7.67;6.90;;;;;;;6.98;100.00;96162.75;5029317;28;20469;-78
2022/11/09 09:24:22;;;;;;;9.87;8.83;;;;;;;6.93;100.00;96156.88;5035451;28;20464;-78
2022/11/09 09:26:49;;;;;;;9.27;6.77;;;;;;;7.15;100.00;96172.53;5035969;28;20450;-78
2022/11/09 09:29:15;;;;;;;12.90;9.70;;;;;;;7.24;100.00;96193.59;5040941;28;20924;-78
2022/11/09 09:31:42;;;;;;;10.30;9.40;;;;;;;7.05;100.00;96143.91;5029760;28;20437;-79
2022/11/09 09:34:10;;;;;;;11.20;8.87;;;;;;;7.44;100.00;96181.66;5036639;28;20827;-79
2022/11/09 09:36:37;;;;;;;10.77;8.83;;;;;;;7.45;100.00;96170.06;5036001;28;20883;-79
2022/11/09 09:39:10;;;;;;;9.67;8.67;;;;;;;7.18;100.00;96131.69;5012929;28;20461;-79
2022/11/09 09:41:40;;;;;;;9.97;8.63;;;;;;;7.44;100.00;96153.50;5019694;28;20430;-79
2022/11/09 09:44:19;;;;;;;8.67;7.70;;;;;;;7.64;100.00;96181.84;5030361;28;20431;-79
2022/11/09 09:47:02;;;;;;;8.87;8.07;;;;;;;7.58;100.00;96153.34;5018037;28;20465;-79
2022/11/09 09:49:33;;;;;;;9.87;8.93;;;;;;;7.72;100.00;96193.44;5029188;28;20446;-79
2022/11/09 09:52:06;;;;;;;8.53;7.73;;;;;;;7.81;100.00;96196.06;5035859;28;20442;-79
2022/11/09 09:54:51;;;;;;;12.70;9.67;;;;;;;7.78;100.00;96186.16;5013273;28;20448;-79
2022/11/09 09:57:21;;;;;;;12.20;9.57;;;;;;;7.86;100.00;96190.63;5036360;28;20811;-80
2022/11/09 09:59:55;;;;;;;13.00;10.27;;;;;;;7.97;100.00;96181.34;5038268;28;20528;-80
2022/11/09 10:02:23;;;;;;;9.50;8.50;;;;;;;7.86;100.00;96169.56;5026796;28;20458;-80
2022/11/09 10:04:53;;;;;;;8.83;7.87;;;;;;;8.06;100.00;96168.16;5038162;28;20484;-80
2022/11/09 10:07:27;;;;;;;9.77;7.70;;;;;;;8.13;100.00;96187.66;5029319;28;20459;-79
2022/11/09 10:10:11;;;;;;;8.20;7.50;;;;;;;8.43;100.00;96209.63;5011635;28;20469;-79
2022/11/09 10:13:08;;;;;;;9.63;7.60;;;;;;;8.38;100.00;96186.06;5027260;28;20600;-80
2022/11/09 10:15:59;;;;;;;8.83;7.43;;;;;;;8.26;100.00;96175.38;5013594;28;20447;-80
2022/11/09 10:19:00;;;;;;;10.50;7.93;;;;;;;8.44;100.00;96199.84;5041430;28;20494;-79
2022/11/09 10:21:44;;;;;;;7.70;6.90;;;;;;;8.39;100.00;96192.88;5041474;28;20536;-80
2022/11/09 10:24:29;;;;;;;9.07;6.90;;;;;;;8.47;100.00;96199.22;5027852;28;20508;-79
2022/11/09 10:26:58;;;;;;;8.40;7.60;;;;;;;8.18;100.00;96147.22;5040010;28;20465;-80
2022/11/09 10:29:44;;;;;;;8.40;7.60;;;;;;;8.46;100.00;96171.31;5025887;28;20468;-79
2022/11/09 10:32:19;;;;;;;9.17;8.07;;;;;;;8.54;100.00;96189.72;5048573;28;20537;-80
2022/11/09 10:34:59;;;;;;;7.73;6.97;;;;;;;8.55;100.00;96190.53;5030400;28;20485;-80
2022/11/09 10:37:45;;;;;;;8.50;7.63;;;;;;;8.72;100.00;96179.13;5030066;28;20490;-79
2022/11/09 10:40:23;;;;;;;9.10;8.00;;;;;;;8.88;100.00;96182.75;5019883;28;20540;-80
2022/11/09 10:43:10;;;;;;;9.60;7.77;;;;;;;9.09;100.00;96174.91;5044760;28;20442;-81
2022/11/09 10:46:05;;;;;;;9.50;8.70;;;;;;;8.94;100.00;96143.78;5044881;28;20459;-79
2022/11/09 10:48:53;;;;;;;10.20;8.77;;;;;;;9.22;100.00;96165.97;5043465;28;20417;-80
2022/11/09 10:51:46;;;;;;;9.20;7.50;;;;;;;9.00;100.00;96127.47;5044903;28;20424;-80
2022/11/09 10:54:36;;;;;;;8.30;6.90;;;;;;;9.06;100.00;96143.88;5041301;28;20446;-80
2022/11/09 10:57:23;;;;;;;7.70;6.67;;;;;;;8.88;100.00;96120.25;5053124;28;20472;-80
2022/11/09 11:00:20;;;;;;;9.03;8.20;;;;;;;8.93;100.00;96121.16;5029663;28;20500;-80
2022/11/09 11:03:15;;;;;;;10.60;6.63;;;;;;;8.88;100.00;96087.84;5046705;28;20438;-80
2022/11/09 11:06:01;;;;;;;8.73;7.53;;;;;;;9.25;100.00;96149.50;5023508;28;20458;-80
2022/11/09 11:09:09;;;;;;;7.60;7.00;;;;;;;9.40;100.00;96156.06;5026867;28;20463;-80
2022/11/09 11:12:16;;;;;;;9.50;6.53;;;;;;;9.65;100.00;96143.75;5028460;28;20535;-80
2022/11/09 11:15:01;;;;;;;7.57;6.83;;;;;;;9.51;100.00;96108.94;5038973;28;20462;-80
2022/11/09 11:17:47;;;;;;;7.90;6.70;;;;;;;9.82;100.00;96145.47;5033043;28;20401;-80
2022/11/09 11:20:34;;;;;;;8.80;7.90;;;;;;;9.82;100.00;96124.34;5034996;28;20461;-80
2022/11/09 11:23:24;;;;;;;6.30;5.80;;;;;;;9.99;100.00;96116.22;5033967;28;20525;-80
2022/11/09 11:26:24;;;;;;;7.33;6.67;;;;;;;10.06;100.00;96119.88;5036674;28;20429;-80
2022/11/09 11:29:34;;;;;;;7.23;5.90;;;;;;;10.03;100.00;96120.56;5035339;28;20398;-79
2022/11/09 11:32:21;;;;;;;9.97;6.67;;;;;;;9.98;100.00;96106.75;5053055;28;20465;-80
2022/11/09 11:35:25;;;;;;;7.53;6.40;;;;;;;10.49;100.00;96129.22;5048771;28;20902;-80
2022/11/09 11:38:20;;;;;;;7.00;6.40;;;;;;;10.78;100.00;96130.09;5045034;28;20513;-80
2022/11/09 11:41:15;;;;;;;6.83;6.17;;;;;;;10.55;100.00;96127.09;5052509;28;20460;-80
2022/11/09 11:44:22;;;;;;;10.27;6.87;;;;;;;10.63;100.00;96126.25;5037125;28;20854;-80
2022/11/09 11:47:17;;;;;;;8.10;5.40;;;;;;;10.54;100.00;96122.94;5020665;28;20817;-80